Latest Coastal Weather Observations for Karratha

IDW60701

Issued at 6:25 am WST Thursday 2 October 2014 (issued every 10 minutes, with the page automatically refreshed every 10 minutes)

About coastal observations | Map of coastal stations | Coastal observations for WA | Marine services | Other Formats
Station Details ID: 004083 Name: KARRATHA AERO Lat: -20.71 Lon: 116.77 Height: 5.3 m
Data from the previous 72 hours. | See also: Recent months at Karratha
Date/Time
WST
Temp

°C
Wind Pressure Rain
since 9am
mm
Weather Cloud Vis
km
Sea
Height
m
Swell
Dir
 
Speed
knots
Gust
knots
hPa Trend Height
m
Period
s
Dir
02/06:00am 20.2 WSW 7 9 1012.9 - 0.0 - - 10 - - - -
02/05:30am 20.3 WSW 9 10 1012.5 - 0.0 - - 10 - - - -
02/05:00am 20.7 WSW 10 12 1012.1 - 0.0 - - 10 - - - -
02/04:30am 21.3 WSW 10 12 1011.9 - 0.0 - - 10 - - - -
02/04:00am 21.8 WSW 12 14 1011.6 - 0.0 - - 10 - - - -
02/03:30am 22.1 WSW 12 14 1011.3 - 0.0 - - 10 - - - -
02/03:00am 22.2 WSW 11 14 1011.3 - 0.0 - - 10 - - - -
02/02:30am 22.3 WSW 11 13 1011.6 - 0.0 - - 10 - - - -
02/02:00am 22.7 WSW 12 15 1011.7 - 0.0 - - 10 - - - -
02/01:30am 22.9 WSW 13 17 1011.7 - 0.0 - - 10 - - - -
02/01:00am 23.3 WSW 14 18 1011.9 - 0.0 - - 10 - - - -
02/12:30am 23.5 WSW 14 18 1012.1 - 0.0 - - 10 - - - -
02/12:00am 23.7 WSW 14 17 1012.4 - 0.0 - - 10 - - - -
 
Date/Time
WST
Temp

°C
Wind Pressure Rain
since 9am
mm
Weather Cloud Vis
km
Sea
Height
m
Swell
Dir
 
Speed
knots
Gust
knots
hPa Trend Height
m
Period
s
Dir
01/11:30pm 23.7 WSW 13 15 1012.6 - 0.0 - - 10 - - - -
01/11:00pm 23.9 WSW 15 18 1012.9 - 0.0 - - 10 - - - -
01/10:30pm 24.2 WSW 15 19 1013.0 - 0.0 - - 10 - - - -
01/10:00pm 24.6 WSW 15 19 1013.1 - 0.0 - - 10 - - - -
01/09:30pm 25.1 W 17 21 1013.1 - 0.0 - - 10 - - - -
01/09:00pm 25.6 WSW 16 21 1013.1 - 0.0 - - 10 - - - -
01/08:30pm 25.7 W 17 23 1012.8 - 0.0 - - 10 - - - -
01/08:00pm 26.0 W 18 22 1012.6 - 0.0 - - 10 - - - -
01/07:30pm 26.4 W 17 21 1012.1 - 0.0 - - 10 - - - -
01/07:00pm 26.8 W 15 19 1011.7 - 0.0 - - 10 - - - -
01/06:30pm 27.4 W 16 19 1011.4 - 0.0 - - 10 - - - -
01/06:00pm 27.8 W 16 19 1011.2 - 0.0 - - 10 - - - -
01/05:30pm 28.3 W 18 21 1011.1 - 0.0 - - 10 - - - -
01/05:00pm 30.0 W 19 25 1011.0 - 0.0 - - 10 - - - -
01/04:30pm 30.2 W 19 23 1011.1 - 0.0 - - 10 - - - -
01/04:00pm 30.2 W 18 22 1011.2 - 0.0 - - 10 - - - -
01/03:30pm 31.4 W 20 24 1011.2 - 0.0 - - 10 - - - -
01/03:00pm 31.1 W 19 23 1011.3 - 0.0 - - 10 - - - -
01/02:30pm 31.8 W 20 24 1011.4 - 0.0 - - 10 - - - -
01/02:00pm 32.6 W 18 22 1011.7 - 0.0 - - 10 - - - -
01/01:30pm 34.2 W 17 19 1012.0 - 0.0 - - 10 - - - -
01/01:00pm 34.4 W 16 19 1012.3 - 0.0 - - 10 - - - -
01/12:30pm 34.0 W 13 16 1012.7 - 0.0 - - 10 - - - -
01/12:00pm 33.9 W 13 15 1013.2 - 0.0 - - 10 - - - -
01/11:30am 33.5 WNW 12 15 1013.7 - 0.0 - - 10 - - - -
01/11:00am 33.9 W 12 14 1014.1 - 0.0 - - 10 - - - -
01/10:30am 33.6 W 13 17 1014.3 - 0.0 - - 10 - - - -
01/10:00am 33.5 SW 11 16 1014.5 - 0.0 - - 10 - - - -
01/09:30am 32.4 SW 11 14 1014.8 - 0.0 - - 10 - - - -
01/09:00am 31.4 SSW 11 15 1015.0 - 0.0 - - 10 - - - -
01/08:30am 29.5 SSW 11 14 1014.7 - 0.0 - - 10 - - - -
01/08:00am 28.1 S 11 13 1014.4 - 0.0 - - 10 - - - -
01/07:30am 24.8 SW 6 8 1014.4 - 0.0 - - 10 - - - -
01/07:00am 23.1 WSW 8 9 1013.5 - 0.0 - - 10 - - - -
01/06:30am 21.3 WSW 6 8 1013.3 - 0.0 - - 10 - - - -
01/06:00am 19.9 WSW 7 8 1013.1 - 0.0 - - 10 - - - -
01/05:30am 19.4 WSW 7 8 1012.8 - 0.0 - - 10 - - - -
01/05:00am 19.7 SW 5 7 1012.6 - 0.0 - - 10 - - - -
01/04:30am 21.1 WSW 9 11 1012.3 - 0.0 - - 10 - - - -
01/04:00am 21.0 WSW 8 10 1012.1 - 0.0 - - 10 - - - -
01/03:30am 21.4 WSW 10 12 1012.0 - 0.0 - - 10 - - - -
01/03:00am 21.8 WSW 13 16 1011.9 - 0.0 - - 10 - - - -
01/02:30am 22.0 WSW 12 15 1012.3 - 0.0 - - 10 - - - -
01/02:00am 22.7 WSW 15 19 1012.3 - 0.0 - - 10 - - - -
01/01:30am 22.6 W 12 15 1012.4 - 0.0 - - 10 - - - -
01/01:00am 22.5 WSW 11 13 1012.6 - 0.0 - - 10 - - - -
01/12:30am 22.5 WSW 10 13 1013.0 - 0.0 - - 10 - - - -
01/12:00am 23.1 WSW 12 15 1013.0 - 0.0 - - 10 - - - -
 
Date/Time
WST
Temp

°C
Wind Pressure Rain
since 9am
mm
Weather Cloud Vis
km
Sea
Height
m
Swell
Dir
 
Speed
knots
Gust
knots
hPa Trend Height
m
Period
s
Dir
30/11:30pm 24.0 WSW 13 17 1013.4 - 0.0 - - 10 - - - -
30/11:00pm 24.4 W 17 21 1013.2 - 0.0 - - 10 - - - -
30/10:30pm 24.5 W 12 16 1013.9 - 0.0 - - 10 - - - -
30/10:00pm 24.7 W 13 17 1014.1 - 0.0 - - 10 - - - -
30/09:30pm 24.9 W 12 15 1014.2 - 0.0 - - 10 - - - -
30/09:00pm 24.9 W 12 14 1014.2 - 0.0 - - 10 - - - -
30/08:30pm 25.2 W 12 14 1013.9 - 0.0 - - 10 - - - -
30/08:00pm 25.8 W 12 15 1013.7 - 0.0 - - 10 - - - -
30/07:30pm 26.0 W 11 13 1013.5 - 0.0 - - 10 - - - -
30/07:00pm 26.4 W 11 12 1013.1 - 0.0 - - 10 - - - -
30/06:30pm 27.3 W 8 10 1012.6 - 0.0 - - 10 - - - -
30/06:00pm 28.5 W 8 10 1012.2 - 0.0 - - 10 - - - -
30/05:30pm 30.2 W 9 11 1011.6 - 0.0 - - 10 - - - -
30/05:00pm 30.7 W 9 12 1011.4 - 0.0 - - 10 - - - -
30/04:30pm 32.1 WNW 10 13 1011.1 - 0.0 - - 10 - - - -
30/04:00pm 32.1 NW 11 13 1011.1 - 0.0 - - 10 - - - -
30/03:30pm 32.4 NW 11 14 1011.0 - 0.0 - - 10 - - - -
30/03:00pm 32.5 NW 11 14 1011.0 - 0.0 - - 10 - - - -
30/02:30pm 33.6 WNW 11 13 1011.2 - 0.0 - - 10 - - - -
30/02:00pm 34.2 WNW 10 12 1011.4 - 0.0 - - 10 - - - -
30/01:30pm 33.9 WNW 10 13 1011.6 - 0.0 - - 10 - - - -
30/01:00pm 33.2 WNW 9 11 1012.0 - 0.0 - - 10 - - - -
30/12:30pm 33.1 WNW 8 10 1012.4 - 0.0 - - 10 - - - -
30/12:00pm 32.4 WNW 8 10 1013.0 - 0.0 - - 10 - - - -
30/11:30am 31.5 WNW 7 9 1013.4 - 0.0 - - 10 - - - -
30/11:00am 30.1 W 7 11 1013.7 - 0.0 - - 10 - - - -
30/10:30am 29.2 W 8 10 1013.9 - 0.0 - - 10 - - - -
30/10:00am 28.8 W 7 9 1014.1 - 0.0 - - 10 - - - -
30/09:30am 28.6 W 6 7 1014.1 - 0.0 - - 10 - - - -
30/09:00am 27.6 W 7 10 1013.9 - 0.0 - - 10 - - - -
30/08:30am 26.2 W 8 9 1013.8 - 0.0 - - 10 - - - -
30/08:00am 25.2 W 8 10 1013.8 - 0.0 - - 10 - - - -
30/07:30am 24.0 W 6 8 1013.6 - 0.0 - - 10 - - - -
30/07:00am 22.0 W 5 8 1013.5 - 0.0 - - 10 - - - -
30/06:30am 20.4 W 6 8 1013.1 - 0.0 - - 10 - - - -
30/06:00am 18.9 WSW 4 6 1013.0 - 0.0 - - 10 - - - -
30/05:30am 19.4 W 5 6 1012.8 - 0.0 - - 10 - - - -
30/05:00am 18.9 SW 5 6 1012.6 - 0.0 - - 10 - - - -
30/04:30am 20.5 WSW 6 7 1012.5 - 0.0 - - 10 - - - -
30/04:00am 20.5 WSW 7 8 1012.3 - 0.0 - - 10 - - - -
30/03:30am 20.9 W 6 8 1012.2 - 0.0 - - 10 - - - -
30/03:00am 20.9 WSW 6 8 1012.2 - 0.0 - - 10 - - - -
30/02:30am 20.6 WSW 7 8 1012.2 - 0.0 - - 10 - - - -
30/02:00am 20.6 W 6 7 1012.5 - 0.0 - - 10 - - - -
30/01:30am 20.3 SW 8 9 1012.4 - 0.0 - - 10 - - - -
30/01:00am 21.6 WSW 7 9 1012.6 - 0.0 - - 10 - - - -
30/12:30am 22.4 WSW 10 12 1012.9 - 0.0 - - 10 - - - -
30/12:00am 23.0 WSW 11 13 1013.2 - 0.0 - - 10 - - - -
 
Date/Time
WST
Temp

°C
Wind Pressure Rain
since 9am
mm
Weather Cloud Vis
km
Sea
Height
m
Swell
Dir
 
Speed
knots
Gust
knots
hPa Trend Height
m
Period
s
Dir
29/11:30pm 23.3 WSW 11 14 1013.3 - 0.0 - - 10 - - - -
29/11:00pm 23.6 WSW 13 15 1013.4 - 0.0 - - 10 - - - -
29/10:30pm 23.9 WSW 15 18 1013.7 - 0.0 - - 10 - - - -
29/10:00pm 24.3 WSW 15 18 1013.8 - 0.0 - - 10 - - - -
29/09:30pm 24.4 W 15 19 1013.8 - 0.0 - - 10 - - - -
29/09:00pm 24.6 W 16 19 1013.9 - 0.0 - - 10 - - - -
29/08:30pm 25.0 W 16 20 1013.6 - 0.0 - - 10 - - - -
29/08:00pm 25.0 W 15 18 1013.4 - 0.0 - - 10 - - - -
29/07:30pm 25.3 W 15 19 1013.1 - 0.0 - - 10 - - - -
29/07:00pm 25.6 W 14 19 1012.8 - 0.0 - - 10 - - - -
29/06:30pm 26.3 W 15 19 1012.4 - 0.0 - - 10 - - - -
29/06:00pm 26.5 W 15 18 1012.1 - 0.0 - - 10 - - - -
29/05:30pm 27.4 W 17 21 1011.9 - 0.0 - - 10 - - - -
29/05:00pm 28.2 W 16 20 1011.6 - 0.0 - - 10 - - - -
29/04:30pm 28.5 W 18 22 1011.2 - 0.0 - - 10 - - - -
29/04:00pm 29.2 W 20 24 1011.2 - 0.0 - - 10 - - - -
29/03:30pm 29.8 W 18 21 1011.2 - 0.0 - - 10 - - - -
29/03:00pm 30.3 WNW 15 18 1011.6 - 0.0 - - 10 - - - -
29/02:30pm 30.4 NW 14 17 1011.8 - 0.0 - - 10 - - - -
29/02:00pm 30.7 NW 13 16 1011.9 - 0.0 - - 10 - - - -
29/01:30pm 31.5 W 12 15 1012.0 - 0.0 - - 10 - - - -
29/01:00pm 31.8 W 12 15 1012.2 - 0.0 - - 10 - - - -
29/12:30pm 31.6 W 13 16 1012.4 - 0.0 - - 10 - - - -
29/12:00pm 31.7 W 11 14 1012.9 - 0.0 - - 10 - - - -
29/11:30am 31.1 WNW 10 13 1013.3 - 0.0 - - 10 - - - -
29/11:00am 30.2 WNW 10 12 1013.8 - 0.0 - - 10 - - - -
29/10:30am 30.1 WNW 9 12 1014.1 - 0.0 - - 10 - - - -
29/10:00am 28.5 WNW 9 11 1014.2 - 0.0 - - 10 - - - -
29/09:30am 27.2 W 7 9 1014.1 - 0.0 - - 10 - - - -
29/09:00am 26.0 W 7 8 1014.3 - 0.0 - - 10 - - - -
29/08:30am 24.1 W 6 8 1014.2 - 0.0 - - 10 - - - -
29/08:00am 22.6 W 9 10 1014.0 - 0.0 - - 10 - - - -
29/07:30am 21.7 WSW 9 10 1013.8 - 0.0 - - 10 - - - -
29/07:00am 21.4 WSW 11 13 1013.5 - 0.0 - - 10 - - - -
29/06:30am 21.1 WSW 10 13 1013.2 - 0.0 - - 10 - - - -

Other Formats:

Comma delimited format used in spreadsheet applications
http://www.bom.gov.au/fwo/IDW60701/IDW60701.95307.axf

JavaScript Object Notation format (JSON) in row-major order
http://www.bom.gov.au/fwo/IDW60701/IDW60701.95307.json